sensor_id;sensor_type;location;lat;lon;timestamp;temperature;humidity
16289;DHT22;26089;43.538;5.250;2023-03-04T00:02:21;5.50;99.90
16289;DHT22;26089;43.538;5.250;2023-03-04T00:04:49;5.50;99.90
16289;DHT22;26089;43.538;5.250;2023-03-04T00:07:16;6.10;99.90
16289;DHT22;26089;43.538;5.250;2023-03-04T00:09:44;5.50;99.90
16289;DHT22;26089;43.538;5.250;2023-03-04T00:12:11;6.10;99.90
16289;DHT22;26089;43.538;5.250;2023-03-04T00:14:38;5.50;99.90
16289;DHT22;26089;43.538;5.250;2023-03-04T00:17:05;5.50;99.90
16289;DHT22;26089;43.538;5.250;2023-03-04T00:19:32;5.50;99.90
16289;DHT22;26089;43.538;5.250;2023-03-04T00:22:02;5.40;99.90
16289;DHT22;26089;43.538;5.250;2023-03-04T00:24:29;5.20;99.90
16289;DHT22;26089;43.538;5.250;2023-03-04T00:26:56;5.00;99.90
16289;DHT22;26089;43.538;5.250;2023-03-04T00:29:23;4.90;99.90
16289;DHT22;26089;43.538;5.250;2023-03-04T00:31:50;4.40;99.90
16289;DHT22;26089;43.538;5.250;2023-03-04T00:34:17;4.70;99.90
16289;DHT22;26089;43.538;5.250;2023-03-04T00:36:44;4.50;99.90
16289;DHT22;26089;43.538;5.250;2023-03-04T00:39:12;4.40;99.90
16289;DHT22;26089;43.538;5.250;2023-03-04T00:41:40;4.40;99.90
16289;DHT22;26089;43.538;5.250;2023-03-04T00:44:07;4.30;99.90
16289;DHT22;26089;43.538;5.250;2023-03-04T00:46:34;4.20;99.90
16289;DHT22;26089;43.538;5.250;2023-03-04T00:49:01;4.20;99.90
16289;DHT22;26089;43.538;5.250;2023-03-04T00:51:28;4.20;99.90
16289;DHT22;26089;43.538;5.250;2023-03-04T00:53:55;4.20;99.90
16289;DHT22;26089;43.538;5.250;2023-03-04T00:56:23;4.30;99.90
16289;DHT22;26089;43.538;5.250;2023-03-04T00:58:50;4.50;99.90
16289;DHT22;26089;43.538;5.250;2023-03-04T01:01:17;4.20;99.90
16289;DHT22;26089;43.538;5.250;2023-03-04T01:03:44;4.20;99.90
16289;DHT22;26089;43.538;5.250;2023-03-04T01:06:11;5.40;99.90
16289;DHT22;26089;43.538;5.250;2023-03-04T01:08:38;4.20;99.90
16289;DHT22;26089;43.538;5.250;2023-03-04T01:11:06;4.30;99.90
16289;DHT22;26089;43.538;5.250;2023-03-04T01:13:34;4.40;99.90
16289;DHT22;26089;43.538;5.250;2023-03-04T01:16:01;4.40;99.90
16289;DHT22;26089;43.538;5.250;2023-03-04T01:18:29;4.20;99.90
16289;DHT22;26089;43.538;5.250;2023-03-04T01:20:56;4.40;99.90
16289;DHT22;26089;43.538;5.250;2023-03-04T01:23:23;4.30;99.90
16289;DHT22;26089;43.538;5.250;2023-03-04T01:25:50;4.20;99.90
16289;DHT22;26089;43.538;5.250;2023-03-04T01:28:17;4.20;99.90
16289;DHT22;26089;43.538;5.250;2023-03-04T01:30:46;4.10;99.90
16289;DHT22;26089;43.538;5.250;2023-03-04T01:33:13;4.50;99.90
16289;DHT22;26089;43.538;5.250;2023-03-04T01:35:40;3.80;99.90
16289;DHT22;26089;43.538;5.250;2023-03-04T01:38:07;3.80;99.90
16289;DHT22;26089;43.538;5.250;2023-03-04T01:40:34;4.30;99.90
16289;DHT22;26089;43.538;5.250;2023-03-04T01:43:00;3.60;99.90
16289;DHT22;26089;43.538;5.250;2023-03-04T01:45:28;3.80;99.90
16289;DHT22;26089;43.538;5.250;2023-03-04T01:47:58;3.00;99.90
16289;DHT22;26089;43.538;5.250;2023-03-04T01:50:29;3.40;99.90
16289;DHT22;26089;43.538;5.250;2023-03-04T01:52:56;3.40;99.90
16289;DHT22;26089;43.538;5.250;2023-03-04T01:55:24;3.40;99.90
16289;DHT22;26089;43.538;5.250;2023-03-04T01:57:51;3.40;99.90
16289;DHT22;26089;43.538;5.250;2023-03-04T02:00:29;3.40;99.90
16289;DHT22;26089;43.538;5.250;2023-03-04T02:03:00;3.40;99.90
16289;DHT22;26089;43.538;5.250;2023-03-04T02:05:28;3.30;99.90
16289;DHT22;26089;43.538;5.250;2023-03-04T02:07:56;3.30;99.90
16289;DHT22;26089;43.538;5.250;2023-03-04T02:10:24;3.30;99.90
16289;DHT22;26089;43.538;5.250;2023-03-04T02:12:51;3.20;99.90
16289;DHT22;26089;43.538;5.250;2023-03-04T02:15:19;3.30;99.90
16289;DHT22;26089;43.538;5.250;2023-03-04T02:17:46;3.30;99.90
16289;DHT22;26089;43.538;5.250;2023-03-04T02:20:34;4.10;99.90
16289;DHT22;26089;43.538;5.250;2023-03-04T02:23:06;3.30;99.90
16289;DHT22;26089;43.538;5.250;2023-03-04T02:25:38;3.10;99.90
16289;DHT22;26089;43.538;5.250;2023-03-04T02:28:09;3.60;99.90
16289;DHT22;26089;43.538;5.250;2023-03-04T02:30:36;3.70;99.90
16289;DHT22;26089;43.538;5.250;2023-03-04T02:33:03;3.90;99.90
16289;DHT22;26089;43.538;5.250;2023-03-04T02:35:30;3.90;99.90
16289;DHT22;26089;43.538;5.250;2023-03-04T02:37:57;3.90;99.90
16289;DHT22;26089;43.538;5.250;2023-03-04T02:40:26;3.90;99.90
16289;DHT22;26089;43.538;5.250;2023-03-04T02:42:57;3.90;99.90
16289;DHT22;26089;43.538;5.250;2023-03-04T02:45:36;4.90;99.90
16289;DHT22;26089;43.538;5.250;2023-03-04T02:48:04;4.60;99.90
16289;DHT22;26089;43.538;5.250;2023-03-04T02:50:33;3.60;99.90
16289;DHT22;26089;43.538;5.250;2023-03-04T02:53:01;3.60;99.90
16289;DHT22;26089;43.538;5.250;2023-03-04T02:55:27;3.50;99.90
16289;DHT22;26089;43.538;5.250;2023-03-04T02:57:55;3.40;99.90
16289;DHT22;26089;43.538;5.250;2023-03-04T03:00:22;3.80;99.90
16289;DHT22;26089;43.538;5.250;2023-03-04T03:02:50;3.50;99.90
16289;DHT22;26089;43.538;5.250;2023-03-04T03:05:17;3.60;99.90
16289;DHT22;26089;43.538;5.250;2023-03-04T03:07:44;3.60;99.90
16289;DHT22;26089;43.538;5.250;2023-03-04T03:10:12;4.40;99.90
16289;DHT22;26089;43.538;5.250;2023-03-04T03:12:39;3.70;99.90
16289;DHT22;26089;43.538;5.250;2023-03-04T03:15:07;3.70;99.90
16289;DHT22;26089;43.538;5.250;2023-03-04T03:17:34;4.00;99.90
16289;DHT22;26089;43.538;5.250;2023-03-04T03:20:02;3.70;99.90
16289;DHT22;26089;43.538;5.250;2023-03-04T03:22:30;4.20;99.90
16289;DHT22;26089;43.538;5.250;2023-03-04T03:24:57;3.90;99.90
16289;DHT22;26089;43.538;5.250;2023-03-04T03:27:24;3.70;99.90
16289;DHT22;26089;43.538;5.250;2023-03-04T03:29:51;3.70;99.90
16289;DHT22;26089;43.538;5.250;2023-03-04T03:32:17;3.70;99.90
16289;DHT22;26089;43.538;5.250;2023-03-04T03:34:44;2.80;99.90
16289;DHT22;26089;43.538;5.250;2023-03-04T03:37:13;4.40;99.90
16289;DHT22;26089;43.538;5.250;2023-03-04T03:39:40;3.60;99.90
16289;DHT22;26089;43.538;5.250;2023-03-04T03:42:07;3.50;99.90
16289;DHT22;26089;43.538;5.250;2023-03-04T03:44:34;3.60;99.90
16289;DHT22;26089;43.538;5.250;2023-03-04T03:47:01;3.20;99.90
16289;DHT22;26089;43.538;5.250;2023-03-04T03:49:28;3.60;99.90
16289;DHT22;26089;43.538;5.250;2023-03-04T03:51:55;3.50;99.90
16289;DHT22;26089;43.538;5.250;2023-03-04T03:54:23;3.50;99.90
16289;DHT22;26089;43.538;5.250;2023-03-04T03:56:50;3.40;99.90
16289;DHT22;26089;43.538;5.250;2023-03-04T03:59:17;3.40;99.90
16289;DHT22;26089;43.538;5.250;2023-03-04T04:01:44;3.40;99.90
16289;DHT22;26089;43.538;5.250;2023-03-04T04:04:12;3.40;99.90
16289;DHT22;26089;43.538;5.250;2023-03-04T04:06:39;3.40;99.90
16289;DHT22;26089;43.538;5.250;2023-03-04T04:09:06;3.40;99.90
16289;DHT22;26089;43.538;5.250;2023-03-04T04:11:35;3.40;99.90
16289;DHT22;26089;43.538;5.250;2023-03-04T04:14:02;3.80;99.90
16289;DHT22;26089;43.538;5.250;2023-03-04T04:16:29;3.50;99.90
16289;DHT22;26089;43.538;5.250;2023-03-04T04:18:56;3.40;99.90
16289;DHT22;26089;43.538;5.250;2023-03-04T04:21:23;3.40;99.90
16289;DHT22;26089;43.538;5.250;2023-03-04T04:23:50;3.40;99.90
16289;DHT22;26089;43.538;5.250;2023-03-04T04:26:17;3.70;99.90
16289;DHT22;26089;43.538;5.250;2023-03-04T04:28:45;3.40;99.90
16289;DHT22;26089;43.538;5.250;2023-03-04T04:31:12;3.30;99.90
16289;DHT22;26089;43.538;5.250;2023-03-04T04:33:39;3.40;99.90
16289;DHT22;26089;43.538;5.250;2023-03-04T04:36:11;3.40;99.90
16289;DHT22;26089;43.538;5.250;2023-03-04T04:38:38;3.30;99.90
16289;DHT22;26089;43.538;5.250;2023-03-04T04:41:07;3.50;99.90
16289;DHT22;26089;43.538;5.250;2023-03-04T04:43:40;3.60;99.90
16289;DHT22;26089;43.538;5.250;2023-03-04T04:46:08;3.50;99.90
16289;DHT22;26089;43.538;5.250;2023-03-04T04:48:35;2.70;99.90
16289;DHT22;26089;43.538;5.250;2023-03-04T04:51:03;3.40;99.90
16289;DHT22;26089;43.538;5.250;2023-03-04T04:53:30;3.30;99.90
16289;DHT22;26089;43.538;5.250;2023-03-04T04:55:57;3.30;99.90
16289;DHT22;26089;43.538;5.250;2023-03-04T04:58:24;3.30;99.90
16289;DHT22;26089;43.538;5.250;2023-03-04T05:00:50;3.10;99.90
16289;DHT22;26089;43.538;5.250;2023-03-04T05:03:19;3.40;99.90
16289;DHT22;26089;43.538;5.250;2023-03-04T05:05:46;3.30;99.90
16289;DHT22;26089;43.538;5.250;2023-03-04T05:08:13;3.50;99.90
16289;DHT22;26089;43.538;5.250;2023-03-04T05:10:40;4.60;99.90
16289;DHT22;26089;43.538;5.250;2023-03-04T05:13:07;3.40;99.90
16289;DHT22;26089;43.538;5.250;2023-03-04T05:15:34;3.30;99.90
16289;DHT22;26089;43.538;5.250;2023-03-04T05:18:03;3.90;99.90
16289;DHT22;26089;43.538;5.250;2023-03-04T05:20:31;3.20;99.90
16289;DHT22;26089;43.538;5.250;2023-03-04T05:22:58;3.10;99.90
16289;DHT22;26089;43.538;5.250;2023-03-04T05:25:25;3.20;99.90
16289;DHT22;26089;43.538;5.250;2023-03-04T05:27:52;3.30;99.90
16289;DHT22;26089;43.538;5.250;2023-03-04T05:30:19;3.30;99.90
16289;DHT22;26089;43.538;5.250;2023-03-04T05:32:46;3.30;99.90
16289;DHT22;26089;43.538;5.250;2023-03-04T05:35:13;4.30;99.90
16289;DHT22;26089;43.538;5.250;2023-03-04T05:37:41;3.30;99.90
16289;DHT22;26089;43.538;5.250;2023-03-04T05:40:10;3.30;99.90
16289;DHT22;26089;43.538;5.250;2023-03-04T05:42:37;3.30;99.90
16289;DHT22;26089;43.538;5.250;2023-03-04T05:45:05;3.20;99.90
16289;DHT22;26089;43.538;5.250;2023-03-04T05:47:32;3.10;99.90
16289;DHT22;26089;43.538;5.250;2023-03-04T05:49:59;3.10;99.90
16289;DHT22;26089;43.538;5.250;2023-03-04T05:52:26;3.30;99.90
16289;DHT22;26089;43.538;5.250;2023-03-04T05:54:54;3.00;99.90
16289;DHT22;26089;43.538;5.250;2023-03-04T05:57:21;3.00;99.90
16289;DHT22;26089;43.538;5.250;2023-03-04T05:59:48;2.90;99.90
16289;DHT22;26089;43.538;5.250;2023-03-04T06:02:15;3.60;99.90
16289;DHT22;26089;43.538;5.250;2023-03-04T06:04:42;2.60;99.90
16289;DHT22;26089;43.538;5.250;2023-03-04T06:07:09;2.70;99.90
16289;DHT22;26089;43.538;5.250;2023-03-04T06:09:36;2.60;99.90
16289;DHT22;26089;43.538;5.250;2023-03-04T06:12:05;2.60;99.90
16289;DHT22;26089;43.538;5.250;2023-03-04T06:14:32;2.50;99.90
16289;DHT22;26089;43.538;5.250;2023-03-04T06:16:59;2.70;99.90
16289;DHT22;26089;43.538;5.250;2023-03-04T06:19:26;2.70;99.90
16289;DHT22;26089;43.538;5.250;2023-03-04T06:21:53;2.80;99.90
16289;DHT22;26089;43.538;5.250;2023-03-04T06:24:20;2.90;99.90
16289;DHT22;26089;43.538;5.250;2023-03-04T06:26:47;2.90;99.90
16289;DHT22;26089;43.538;5.250;2023-03-04T06:29:15;2.90;99.90
16289;DHT22;26089;43.538;5.250;2023-03-04T06:31:42;3.10;99.90
16289;DHT22;26089;43.538;5.250;2023-03-04T06:34:09;3.00;99.90
16289;DHT22;26089;43.538;5.250;2023-03-04T06:36:36;3.10;99.90
16289;DHT22;26089;43.538;5.250;2023-03-04T06:39:04;3.20;99.90
16289;DHT22;26089;43.538;5.250;2023-03-04T06:41:32;3.10;99.90
16289;DHT22;26089;43.538;5.250;2023-03-04T06:43:59;3.80;99.90
16289;DHT22;26089;43.538;5.250;2023-03-04T06:46:27;3.30;99.90
16289;DHT22;26089;43.538;5.250;2023-03-04T06:48:54;3.30;99.90
16289;DHT22;26089;43.538;5.250;2023-03-04T06:51:21;3.40;99.90
16289;DHT22;26089;43.538;5.250;2023-03-04T06:53:48;3.40;99.90
16289;DHT22;26089;43.538;5.250;2023-03-04T06:56:15;3.50;99.90
16289;DHT22;26089;43.538;5.250;2023-03-04T06:58:43;3.60;99.90
16289;DHT22;26089;43.538;5.250;2023-03-04T07:01:11;3.70;99.90
16289;DHT22;26089;43.538;5.250;2023-03-04T07:03:40;3.70;99.90
16289;DHT22;26089;43.538;5.250;2023-03-04T07:06:09;4.10;99.90
16289;DHT22;26089;43.538;5.250;2023-03-04T07:08:36;4.60;99.90
16289;DHT22;26089;43.538;5.250;2023-03-04T07:11:03;5.30;99.90
16289;DHT22;26089;43.538;5.250;2023-03-04T07:13:30;6.10;99.90
16289;DHT22;26089;43.538;5.250;2023-03-04T07:16:00;6.30;99.90
16289;DHT22;26089;43.538;5.250;2023-03-04T07:18:27;6.40;99.90
16289;DHT22;26089;43.538;5.250;2023-03-04T07:20:55;6.40;99.90
16289;DHT22;26089;43.538;5.250;2023-03-04T07:23:22;6.60;99.90
16289;DHT22;26089;43.538;5.250;2023-03-04T07:25:49;6.50;99.90
16289;DHT22;26089;43.538;5.250;2023-03-04T07:28:17;6.60;99.90
16289;DHT22;26089;43.538;5.250;2023-03-04T07:30:44;6.80;99.90
16289;DHT22;26089;43.538;5.250;2023-03-04T07:33:11;6.20;99.90
16289;DHT22;26089;43.538;5.250;2023-03-04T07:35:39;6.10;99.90
16289;DHT22;26089;43.538;5.250;2023-03-04T07:38:07;6.00;99.90
16289;DHT22;26089;43.538;5.250;2023-03-04T07:40:35;5.70;99.90
16289;DHT22;26089;43.538;5.250;2023-03-04T07:43:02;5.90;99.90
16289;DHT22;26089;43.538;5.250;2023-03-04T07:45:30;5.90;99.90
16289;DHT22;26089;43.538;5.250;2023-03-04T07:47:57;6.00;99.90
16289;DHT22;26089;43.538;5.250;2023-03-04T07:50:24;6.00;99.90
16289;DHT22;26089;43.538;5.250;2023-03-04T07:52:51;6.10;99.90
16289;DHT22;26089;43.538;5.250;2023-03-04T07:55:19;6.20;99.90
16289;DHT22;26089;43.538;5.250;2023-03-04T07:57:46;6.40;99.90
16289;DHT22;26089;43.538;5.250;2023-03-04T08:00:15;6.90;99.90
16289;DHT22;26089;43.538;5.250;2023-03-04T08:02:42;7.80;99.90
16289;DHT22;26089;43.538;5.250;2023-03-04T08:05:09;9.10;99.90
16289;DHT22;26089;43.538;5.250;2023-03-04T08:07:36;10.50;99.90
16289;DHT22;26089;43.538;5.250;2023-03-04T08:10:04;10.50;99.90
16289;DHT22;26089;43.538;5.250;2023-03-04T08:12:34;11.20;99.90
16289;DHT22;26089;43.538;5.250;2023-03-04T08:15:02;12.00;99.90
16289;DHT22;26089;43.538;5.250;2023-03-04T08:17:29;12.90;99.90
16289;DHT22;26089;43.538;5.250;2023-03-04T08:19:56;13.70;99.90
16289;DHT22;26089;43.538;5.250;2023-03-04T08:22:23;14.10;99.90
16289;DHT22;26089;43.538;5.250;2023-03-04T08:24:50;14.70;99.90
16289;DHT22;26089;43.538;5.250;2023-03-04T08:27:17;15.00;99.90
16289;DHT22;26089;43.538;5.250;2023-03-04T08:29:45;15.40;99.90
16289;DHT22;26089;43.538;5.250;2023-03-04T08:32:12;15.40;99.90
16289;DHT22;26089;43.538;5.250;2023-03-04T08:34:39;15.30;99.90
16289;DHT22;26089;43.538;5.250;2023-03-04T08:37:06;15.40;99.90
16289;DHT22;26089;43.538;5.250;2023-03-04T08:39:33;15.70;99.90
16289;DHT22;26089;43.538;5.250;2023-03-04T08:42:01;15.30;99.90
16289;DHT22;26089;43.538;5.250;2023-03-04T08:44:28;14.70;99.90
16289;DHT22;26089;43.538;5.250;2023-03-04T08:46:56;14.70;99.90
16289;DHT22;26089;43.538;5.250;2023-03-04T08:49:23;14.50;99.90
16289;DHT22;26089;43.538;5.250;2023-03-04T08:51:50;14.10;99.90
16289;DHT22;26089;43.538;5.250;2023-03-04T08:54:17;14.20;99.90
16289;DHT22;26089;43.538;5.250;2023-03-04T08:56:44;15.00;99.90
16289;DHT22;26089;43.538;5.250;2023-03-04T08:59:11;15.70;99.90
16289;DHT22;26089;43.538;5.250;2023-03-04T09:01:38;15.10;99.90
16289;DHT22;26089;43.538;5.250;2023-03-04T09:04:07;15.20;99.90
16289;DHT22;26089;43.538;5.250;2023-03-04T09:06:34;15.50;99.90
16289;DHT22;26089;43.538;5.250;2023-03-04T09:09:01;15.30;99.90
16289;DHT22;26089;43.538;5.250;2023-03-04T09:11:29;15.40;99.90
16289;DHT22;26089;43.538;5.250;2023-03-04T09:13:56;15.50;99.90
16289;DHT22;26089;43.538;5.250;2023-03-04T09:16:23;15.40;99.90
16289;DHT22;26089;43.538;5.250;2023-03-04T09:18:50;14.80;99.90
16289;DHT22;26089;43.538;5.250;2023-03-04T09:21:18;15.00;99.90
16289;DHT22;26089;43.538;5.250;2023-03-04T09:23:45;15.10;99.90
16289;DHT22;26089;43.538;5.250;2023-03-04T09:26:14;15.50;99.90
16289;DHT22;26089;43.538;5.250;2023-03-04T09:28:41;15.30;99.90
16289;DHT22;26089;43.538;5.250;2023-03-04T09:31:12;14.70;99.90
16289;DHT22;26089;43.538;5.250;2023-03-04T09:33:40;15.10;99.90
16289;DHT22;26089;43.538;5.250;2023-03-04T09:36:08;15.00;99.90
16289;DHT22;26089;43.538;5.250;2023-03-04T09:38:37;15.40;99.90
16289;DHT22;26089;43.538;5.250;2023-03-04T09:41:06;15.80;99.90
16289;DHT22;26089;43.538;5.250;2023-03-04T09:43:34;15.90;99.90
16289;DHT22;26089;43.538;5.250;2023-03-04T09:46:03;16.10;99.90
16289;DHT22;26089;43.538;5.250;2023-03-04T09:48:38;16.30;99.90
16289;DHT22;26089;43.538;5.250;2023-03-04T09:51:16;15.80;99.90
16289;DHT22;26089;43.538;5.250;2023-03-04T09:53:52;15.40;99.90
16289;DHT22;26089;43.538;5.250;2023-03-04T09:56:22;15.70;99.90
16289;DHT22;26089;43.538;5.250;2023-03-04T09:58:57;16.10;99.90
16289;DHT22;26089;43.538;5.250;2023-03-04T10:01:34;16.70;99.90
16289;DHT22;26089;43.538;5.250;2023-03-04T10:04:07;16.90;99.90
16289;DHT22;26089;43.538;5.250;2023-03-04T10:06:39;16.20;99.90
16289;DHT22;26089;43.538;5.250;2023-03-04T10:09:12;16.40;99.90
16289;DHT22;26089;43.538;5.250;2023-03-04T10:11:44;16.80;99.90
16289;DHT22;26089;43.538;5.250;2023-03-04T10:14:25;16.90;99.90
16289;DHT22;26089;43.538;5.250;2023-03-04T10:16:58;17.20;99.90
16289;DHT22;26089;43.538;5.250;2023-03-04T10:19:34;17.30;99.90
16289;DHT22;26089;43.538;5.250;2023-03-04T10:22:14;16.70;99.90
16289;DHT22;26089;43.538;5.250;2023-03-04T10:24:44;16.90;99.90
16289;DHT22;26089;43.538;5.250;2023-03-04T10:27:16;17.10;99.90
16289;DHT22;26089;43.538;5.250;2023-03-04T10:29:44;16.70;99.90
16289;DHT22;26089;43.538;5.250;2023-03-04T10:32:13;16.90;99.90
16289;DHT22;26089;43.538;5.250;2023-03-04T10:34:42;16.70;99.90
16289;DHT22;26089;43.538;5.250;2023-03-04T10:37:09;16.40;99.90
16289;DHT22;26089;43.538;5.250;2023-03-04T10:39:38;16.50;99.90
16289;DHT22;26089;43.538;5.250;2023-03-04T10:42:23;16.50;99.90
16289;DHT22;26089;43.538;5.250;2023-03-04T10:44:52;16.80;99.90
16289;DHT22;26089;43.538;5.250;2023-03-04T10:47:22;17.10;99.90
16289;DHT22;26089;43.538;5.250;2023-03-04T10:49:51;17.20;99.90
16289;DHT22;26089;43.538;5.250;2023-03-04T10:52:26;17.30;99.90
16289;DHT22;26089;43.538;5.250;2023-03-04T10:54:55;17.40;99.90
16289;DHT22;26089;43.538;5.250;2023-03-04T10:57:31;17.50;99.90
16289;DHT22;26089;43.538;5.250;2023-03-04T10:59:59;17.30;99.90
16289;DHT22;26089;43.538;5.250;2023-03-04T11:02:29;17.60;99.90
16289;DHT22;26089;43.538;5.250;2023-03-04T11:05:05;17.30;99.90
16289;DHT22;26089;43.538;5.250;2023-03-04T11:07:38;17.20;99.90
16289;DHT22;26089;43.538;5.250;2023-03-04T11:10:10;17.70;99.90
16289;DHT22;26089;43.538;5.250;2023-03-04T11:12:38;17.90;99.90
16289;DHT22;26089;43.538;5.250;2023-03-04T11:15:17;17.70;99.90
16289;DHT22;26089;43.538;5.250;2023-03-04T11:17:48;17.90;99.90
16289;DHT22;26089;43.538;5.250;2023-03-04T11:20:25;17.60;99.90
16289;DHT22;26089;43.538;5.250;2023-03-04T11:22:56;17.60;99.90
16289;DHT22;26089;43.538;5.250;2023-03-04T11:25:28;17.60;99.90
16289;DHT22;26089;43.538;5.250;2023-03-04T11:28:01;17.50;99.90
16289;DHT22;26089;43.538;5.250;2023-03-04T11:30:33;17.90;99.90
16289;DHT22;26089;43.538;5.250;2023-03-04T11:33:11;18.00;99.90
16289;DHT22;26089;43.538;5.250;2023-03-04T11:35:46;17.90;99.90
16289;DHT22;26089;43.538;5.250;2023-03-04T11:38:18;18.40;99.90
16289;DHT22;26089;43.538;5.250;2023-03-04T11:40:49;18.20;99.90
16289;DHT22;26089;43.538;5.250;2023-03-04T11:43:23;17.90;99.90
16289;DHT22;26089;43.538;5.250;2023-03-04T11:46:11;17.50;99.90
16289;DHT22;26089;43.538;5.250;2023-03-04T11:48:50;18.00;99.90
16289;DHT22;26089;43.538;5.250;2023-03-04T11:51:22;18.30;99.90
16289;DHT22;26089;43.538;5.250;2023-03-04T11:54:03;18.40;99.90
16289;DHT22;26089;43.538;5.250;2023-03-04T11:56:34;18.40;99.90
16289;DHT22;26089;43.538;5.250;2023-03-04T12:02:16;19.30;99.90
16289;DHT22;26089;43.538;5.250;2023-03-04T12:05:20;19.20;99.90
16289;DHT22;26089;43.538;5.250;2023-03-04T12:08:07;18.80;99.90
16289;DHT22;26089;43.538;5.250;2023-03-04T12:10:45;18.50;99.90
16289;DHT22;26089;43.538;5.250;2023-03-04T12:13:41;19.00;99.90
16289;DHT22;26089;43.538;5.250;2023-03-04T12:16:28;19.20;99.90
16289;DHT22;26089;43.538;5.250;2023-03-04T12:19:05;19.60;99.90
16289;DHT22;26089;43.538;5.250;2023-03-04T12:21:59;19.70;99.90
16289;DHT22;26089;43.538;5.250;2023-03-04T12:24:50;20.10;99.90
16289;DHT22;26089;43.538;5.250;2023-03-04T12:27:28;20.40;99.90
16289;DHT22;26089;43.538;5.250;2023-03-04T12:29:59;20.60;99.90
16289;DHT22;26089;43.538;5.250;2023-03-04T12:32:37;20.20;99.90
16289;DHT22;26089;43.538;5.250;2023-03-04T12:35:20;20.10;99.90
16289;DHT22;26089;43.538;5.250;2023-03-04T12:38:00;20.20;99.90
16289;DHT22;26089;43.538;5.250;2023-03-04T12:40:38;20.60;99.90
16289;DHT22;26089;43.538;5.250;2023-03-04T12:43:25;20.80;99.90
16289;DHT22;26089;43.538;5.250;2023-03-04T12:45:59;20.70;99.90
16289;DHT22;26089;43.538;5.250;2023-03-04T12:48:31;20.70;99.90
16289;DHT22;26089;43.538;5.250;2023-03-04T12:51:22;20.80;99.90
16289;DHT22;26089;43.538;5.250;2023-03-04T12:53:59;20.60;99.90
16289;DHT22;26089;43.538;5.250;2023-03-04T12:56:34;20.00;99.90
16289;DHT22;26089;43.538;5.250;2023-03-04T12:59:03;20.10;99.90
16289;DHT22;26089;43.538;5.250;2023-03-04T13:01:35;20.30;99.90
16289;DHT22;26089;43.538;5.250;2023-03-04T13:04:13;19.80;99.90
16289;DHT22;26089;43.538;5.250;2023-03-04T13:06:45;20.30;99.90
16289;DHT22;26089;43.538;5.250;2023-03-04T13:09:18;20.20;99.90
16289;DHT22;26089;43.538;5.250;2023-03-04T13:11:52;20.30;99.90
16289;DHT22;26089;43.538;5.250;2023-03-04T13:14:28;20.10;99.90
16289;DHT22;26089;43.538;5.250;2023-03-04T13:16:57;20.10;99.90
16289;DHT22;26089;43.538;5.250;2023-03-04T13:19:45;20.20;99.90
16289;DHT22;26089;43.538;5.250;2023-03-04T13:22:44;20.20;99.90
16289;DHT22;26089;43.538;5.250;2023-03-04T13:25:40;20.60;99.90
16289;DHT22;26089;43.538;5.250;2023-03-04T13:28:15;20.30;99.90
16289;DHT22;26089;43.538;5.250;2023-03-04T13:31:24;20.20;99.90
16289;DHT22;26089;43.538;5.250;2023-03-04T13:33:59;20.60;99.90
16289;DHT22;26089;43.538;5.250;2023-03-04T13:36:58;20.90;99.90
16289;DHT22;26089;43.538;5.250;2023-03-04T13:39:30;20.30;99.90
16289;DHT22;26089;43.538;5.250;2023-03-04T13:41:57;20.20;99.90
16289;DHT22;26089;43.538;5.250;2023-03-04T13:47:32;20.10;99.90
16289;DHT22;26089;43.538;5.250;2023-03-04T13:53:38;19.80;99.90
16289;DHT22;26089;43.538;5.250;2023-03-04T13:56:25;20.30;99.90
16289;DHT22;26089;43.538;5.250;2023-03-04T14:01:58;19.40;99.90
16289;DHT22;26089;43.538;5.250;2023-03-04T14:04:28;19.70;99.90
16289;DHT22;26089;43.538;5.250;2023-03-04T14:06:57;19.70;99.90
16289;DHT22;26089;43.538;5.250;2023-03-04T14:09:27;19.20;99.90
16289;DHT22;26089;43.538;5.250;2023-03-04T14:11:56;19.50;99.90
16289;DHT22;26089;43.538;5.250;2023-03-04T14:14:26;18.90;99.90
16289;DHT22;26089;43.538;5.250;2023-03-04T14:16:56;19.00;99.90
16289;DHT22;26089;43.538;5.250;2023-03-04T14:19:27;19.10;99.90
16289;DHT22;26089;43.538;5.250;2023-03-04T14:21:55;18.90;99.90
16289;DHT22;26089;43.538;5.250;2023-03-04T14:24:24;18.70;99.90
16289;DHT22;26089;43.538;5.250;2023-03-04T14:27:05;18.60;99.90
16289;DHT22;26089;43.538;5.250;2023-03-04T14:29:32;18.60;99.90
16289;DHT22;26089;43.538;5.250;2023-03-04T14:31:59;18.20;99.90
16289;DHT22;26089;43.538;5.250;2023-03-04T14:34:29;18.10;99.90
16289;DHT22;26089;43.538;5.250;2023-03-04T14:36:58;18.10;99.90
16289;DHT22;26089;43.538;5.250;2023-03-04T14:39:29;18.30;99.90
16289;DHT22;26089;43.538;5.250;2023-03-04T14:42:01;18.30;99.90
16289;DHT22;26089;43.538;5.250;2023-03-04T14:44:32;18.40;99.90
16289;DHT22;26089;43.538;5.250;2023-03-04T14:47:09;18.10;99.90
16289;DHT22;26089;43.538;5.250;2023-03-04T14:49:38;17.70;99.90
16289;DHT22;26089;43.538;5.250;2023-03-04T14:52:05;17.50;99.90
16289;DHT22;26089;43.538;5.250;2023-03-04T14:54:35;17.50;99.90
16289;DHT22;26089;43.538;5.250;2023-03-04T14:57:21;17.90;99.90
16289;DHT22;26089;43.538;5.250;2023-03-04T14:59:51;17.90;99.90
16289;DHT22;26089;43.538;5.250;2023-03-04T15:02:22;17.80;99.90
16289;DHT22;26089;43.538;5.250;2023-03-04T15:04:55;17.90;99.90
16289;DHT22;26089;43.538;5.250;2023-03-04T15:07:28;17.90;99.90
16289;DHT22;26089;43.538;5.250;2023-03-04T15:09:58;17.60;99.90
16289;DHT22;26089;43.538;5.250;2023-03-04T15:12:27;17.70;99.90
16289;DHT22;26089;43.538;5.250;2023-03-04T15:14:56;17.50;99.90
16289;DHT22;26089;43.538;5.250;2023-03-04T15:17:33;17.40;99.90
16289;DHT22;26089;43.538;5.250;2023-03-04T15:20:23;17.40;99.90
16289;DHT22;26089;43.538;5.250;2023-03-04T15:22:59;17.10;99.90
16289;DHT22;26089;43.538;5.250;2023-03-04T15:25:29;17.20;99.90
16289;DHT22;26089;43.538;5.250;2023-03-04T15:27:56;16.90;99.90
16289;DHT22;26089;43.538;5.250;2023-03-04T15:30:25;16.50;99.90
16289;DHT22;26089;43.538;5.250;2023-03-04T15:32:53;16.40;99.90
16289;DHT22;26089;43.538;5.250;2023-03-04T15:35:21;16.50;99.90
16289;DHT22;26089;43.538;5.250;2023-03-04T15:37:50;16.50;99.90
16289;DHT22;26089;43.538;5.250;2023-03-04T15:40:24;16.40;99.90
16289;DHT22;26089;43.538;5.250;2023-03-04T15:42:54;16.50;99.90
16289;DHT22;26089;43.538;5.250;2023-03-04T15:45:23;16.20;99.90
16289;DHT22;26089;43.538;5.250;2023-03-04T15:47:51;16.40;99.90
16289;DHT22;26089;43.538;5.250;2023-03-04T15:50:19;16.20;99.90
16289;DHT22;26089;43.538;5.250;2023-03-04T15:52:47;16.00;99.90
16289;DHT22;26089;43.538;5.250;2023-03-04T15:55:15;15.90;99.90
16289;DHT22;26089;43.538;5.250;2023-03-04T15:57:44;15.80;99.90
16289;DHT22;26089;43.538;5.250;2023-03-04T16:00:15;15.90;99.90
16289;DHT22;26089;43.538;5.250;2023-03-04T16:02:42;15.80;99.90
16289;DHT22;26089;43.538;5.250;2023-03-04T16:05:09;15.70;99.90
16289;DHT22;26089;43.538;5.250;2023-03-04T16:07:37;15.60;99.90
16289;DHT22;26089;43.538;5.250;2023-03-04T16:10:19;15.50;99.90